Time;durP1;ratioP1;P1;durP2;ratioP2;P2;SDS_P1;SDS_P2;PMS_P1;PMS_P2;Temp;Humidity;BMP_temperature;BMP_pressure;BME280_temperature;BME280_humidity;BME280_pressure;Samples;Min_cycle;Max_cycle;Signal;HPM_P1;HPM_P2
2023/07/26 00:01:46;;;;;;;4.45;1.70;;;12.80;99.90;;;;;;5096507;28;20078;-83
2023/07/26 00:04:12;;;;;;;5.78;1.80;;;12.80;99.90;;;;;;5112891;28;20039;-83
2023/07/26 00:06:39;;;;;;;4.47;1.63;;;12.70;99.90;;;;;;5101918;27;20933;-83
2023/07/26 00:09:08;;;;;;;5.40;1.75;;;12.70;99.90;;;;;;5116398;27;20475;-83
2023/07/26 00:11:35;;;;;;;3.80;1.60;;;12.70;99.90;;;;;;5133593;27;20060;-84
2023/07/26 00:14:03;;;;;;;3.22;1.45;;;12.70;99.90;;;;;;5116395;27;20043;-83
2023/07/26 00:16:31;;;;;;;3.25;1.50;;;12.70;99.90;;;;;;5116569;27;20135;-83
2023/07/26 00:18:57;;;;;;;4.82;1.50;;;12.70;99.90;;;;;;5148114;27;20046;-84
2023/07/26 00:21:24;;;;;;;4.65;1.50;;;12.70;99.90;;;;;;5150373;27;20039;-83
2023/07/26 00:23:51;;;;;;;7.68;2.00;;;12.70;99.90;;;;;;5132338;27;20044;-84
2023/07/26 00:26:18;;;;;;;5.50;1.58;;;12.70;99.90;;;;;;5116416;27;20446;-83
2023/07/26 00:28:44;;;;;;;5.50;1.85;;;12.70;99.90;;;;;;5116408;27;20731;-83
2023/07/26 00:31:14;;;;;;;5.10;1.67;;;12.70;99.90;;;;;;5112768;27;20039;-83
2023/07/26 00:33:40;;;;;;;4.00;1.73;;;12.70;99.90;;;;;;5113162;28;20085;-83
2023/07/26 00:36:08;;;;;;;11.32;2.80;;;12.70;99.90;;;;;;5146302;28;20074;-84
2023/07/26 00:38:35;;;;;;;7.50;2.70;;;12.60;99.90;;;;;;5129508;28;20051;-83
2023/07/26 00:41:02;;;;;;;7.10;2.72;;;12.60;99.90;;;;;;5095365;28;20408;-83
2023/07/26 00:43:29;;;;;;;7.25;2.60;;;12.60;99.90;;;;;;5132078;27;20050;-83
2023/07/26 00:45:55;;;;;;;7.85;2.75;;;12.60;99.90;;;;;;5149701;27;20057;-83
2023/07/26 00:48:24;;;;;;;10.55;2.75;;;12.60;99.90;;;;;;5150102;27;20035;-84
2023/07/26 00:50:52;;;;;;;6.85;2.20;;;12.60;99.90;;;;;;5149392;27;20058;-83
2023/07/26 00:53:19;;;;;;;6.82;2.75;;;12.60;99.90;;;;;;5147317;27;20494;-84
2023/07/26 00:55:46;;;;;;;9.45;3.00;;;12.60;99.90;;;;;;5116056;27;20096;-83
2023/07/26 00:58:14;;;;;;;7.72;2.80;;;12.60;99.90;;;;;;5115610;27;20074;-83
2023/07/26 01:00:44;;;;;;;8.18;2.50;;;12.60;99.90;;;;;;5132511;27;20047;-83
2023/07/26 01:03:10;;;;;;;6.57;2.65;;;12.60;99.90;;;;;;5153968;27;20526;-83
2023/07/26 01:06:05;;;;;;;8.30;3.08;;;12.60;99.90;;;;;;5095291;28;20032;-83
2023/07/26 01:09:00;;;;;;;7.13;2.58;;;12.50;99.90;;;;;;5127724;28;20103;-83
2023/07/26 01:11:49;;;;;;;5.95;2.55;;;12.60;99.90;;;;;;5129277;27;20130;-83
2023/07/26 01:14:38;;;;;;;5.90;2.60;;;12.60;99.90;;;;;;5145508;28;20031;-83
2023/07/26 01:17:05;;;;;;;7.05;2.78;;;12.60;99.90;;;;;;5144588;28;20089;-83
2023/07/26 01:19:32;;;;;;;6.18;3.17;;;12.60;99.90;;;;;;5111789;28;20511;-84
2023/07/26 01:21:59;;;;;;;7.40;3.67;;;12.50;99.90;;;;;;5129507;27;20539;-83
2023/07/26 01:24:26;;;;;;;7.30;3.55;;;12.60;99.90;;;;;;5111480;28;20044;-83
2023/07/26 01:26:53;;;;;;;8.65;4.70;;;12.60;99.90;;;;;;5128815;28;20104;-83
2023/07/26 01:29:19;;;;;;;9.65;4.13;;;12.60;99.90;;;;;;5128134;28;20135;-83
2023/07/26 01:31:48;;;;;;;7.82;4.60;;;12.60;99.90;;;;;;5111515;28;20495;-83
2023/07/26 01:34:14;;;;;;;7.93;3.95;;;12.60;99.90;;;;;;5111298;28;20065;-83
2023/07/26 01:36:42;;;;;;;7.30;4.35;;;12.60;99.90;;;;;;5112490;28;20043;-83
2023/07/26 01:39:10;;;;;;;9.68;4.03;;;12.50;99.90;;;;;;5127918;28;20040;-83
2023/07/26 01:41:38;;;;;;;8.77;3.80;;;12.60;99.90;;;;;;5111398;28;20491;-84
2023/07/26 01:44:05;;;;;;;8.90;4.10;;;12.60;99.90;;;;;;5110657;28;20130;-83
2023/07/26 01:46:31;;;;;;;6.35;3.70;;;12.60;99.90;;;;;;5111733;28;20562;-84
2023/07/26 01:48:58;;;;;;;9.82;3.88;;;12.50;99.90;;;;;;5110865;28;20039;-83
2023/07/26 01:51:25;;;;;;;7.47;3.83;;;12.50;99.90;;;;;;5094090;28;20783;-83
2023/07/26 01:53:51;;;;;;;8.85;3.97;;;12.50;99.90;;;;;;5127787;28;20042;-83
2023/07/26 01:56:18;;;;;;;9.05;4.82;;;12.50;99.90;;;;;;5100566;28;20513;-83
2023/07/26 01:58:45;;;;;;;9.25;4.53;;;12.50;99.90;;;;;;5127803;28;20543;-83
2023/07/26 02:01:12;;;;;;;13.27;5.05;;;12.40;99.90;;;;;;5110912;28;20043;-83
2023/07/26 02:03:39;;;;;;;8.98;4.97;;;12.40;99.90;;;;;;5127809;28;20043;-83
2023/07/26 02:06:05;;;;;;;8.80;4.57;;;12.40;99.90;;;;;;5112064;28;20513;-83
2023/07/26 02:08:32;;;;;;;9.18;4.38;;;12.40;99.90;;;;;;5110815;28;20044;-83
2023/07/26 02:10:59;;;;;;;10.55;4.72;;;12.40;99.90;;;;;;5110630;28;20042;-84
2023/07/26 02:13:26;;;;;;;9.38;4.43;;;12.40;99.90;;;;;;5110582;28;20504;-83
2023/07/26 02:15:52;;;;;;;9.48;4.60;;;12.30;99.90;;;;;;5111417;28;20050;-84
2023/07/26 02:18:19;;;;;;;9.60;4.68;;;12.30;99.90;;;;;;5113240;27;20038;-83
2023/07/26 02:20:46;;;;;;;10.80;4.63;;;12.30;99.90;;;;;;5130654;27;20031;-83
2023/07/26 02:23:13;;;;;;;10.55;4.90;;;12.20;99.90;;;;;;5130593;27;20175;-84
2023/07/26 02:25:39;;;;;;;11.80;4.82;;;12.20;99.90;;;;;;5131010;27;20039;-83
2023/07/26 02:28:06;;;;;;;13.20;4.88;;;12.20;99.90;;;;;;5131064;27;20042;-83
2023/07/26 02:30:33;;;;;;;14.27;4.70;;;12.10;99.90;;;;;;5109518;28;20384;-83
2023/07/26 02:32:59;;;;;;;9.30;3.80;;;12.10;99.90;;;;;;5094174;28;20039;-83
2023/07/26 02:35:26;;;;;;;8.57;3.97;;;12.10;99.90;;;;;;5110115;28;20039;-83
2023/07/26 02:37:53;;;;;;;7.32;3.60;;;12.10;99.90;;;;;;5093804;28;20040;-83
2023/07/26 02:40:20;;;;;;;6.88;3.83;;;12.10;99.90;;;;;;5093777;28;20509;-83
2023/07/26 02:42:47;;;;;;;8.45;3.47;;;12.00;99.90;;;;;;5132443;28;20070;-84
2023/07/26 02:45:13;;;;;;;5.50;3.25;;;12.00;99.90;;;;;;5093371;28;20067;-83
2023/07/26 02:47:40;;;;;;;6.10;3.17;;;12.00;99.90;;;;;;5093615;28;20042;-83
2023/07/26 02:50:07;;;;;;;6.18;3.05;;;12.00;99.90;;;;;;5126877;28;20051;-83
2023/07/26 02:52:34;;;;;;;8.50;3.10;;;12.00;99.90;;;;;;5135011;28;20050;-84
2023/07/26 02:55:00;;;;;;;5.80;3.30;;;12.00;99.90;;;;;;5093883;28;20477;-84
2023/07/26 02:57:27;;;;;;;6.13;3.30;;;11.90;99.90;;;;;;5126757;28;20040;-83
2023/07/26 02:59:54;;;;;;;8.02;3.25;;;11.90;99.90;;;;;;5093591;28;20053;-83
2023/07/26 03:02:21;;;;;;;6.05;3.10;;;11.90;99.90;;;;;;5101006;28;20449;-83
2023/07/26 03:04:48;;;;;;;6.03;3.70;;;11.90;99.90;;;;;;5130513;28;20039;-83
2023/07/26 03:07:14;;;;;;;10.20;3.40;;;11.90;99.90;;;;;;5113449;28;20070;-82
2023/07/26 03:09:41;;;;;;;7.70;3.30;;;11.80;99.90;;;;;;5130574;28;20474;-83
2023/07/26 03:12:08;;;;;;;6.68;3.40;;;11.80;99.90;;;;;;5109595;28;20035;-83
2023/07/26 03:14:40;;;;;;;5.38;2.67;;;11.80;99.90;;;;;;5092803;28;20040;-84
2023/07/26 03:17:08;;;;;;;6.03;3.22;;;11.80;99.90;;;;;;5094816;28;20457;-83
2023/07/26 03:19:35;;;;;;;7.60;2.92;;;11.80;99.90;;;;;;5110020;28;20043;-83
2023/07/26 03:22:02;;;;;;;6.32;3.13;;;11.80;99.90;;;;;;5111455;28;20088;-83
2023/07/26 03:24:29;;;;;;;6.45;2.88;;;11.80;99.90;;;;;;5106920;28;20043;-83
2023/07/26 03:26:56;;;;;;;4.95;2.90;;;11.80;99.90;;;;;;5110185;28;20130;-83
2023/07/26 03:29:22;;;;;;;6.43;3.05;;;11.80;99.90;;;;;;5126257;28;20039;-83
2023/07/26 03:31:52;;;;;;;6.10;3.05;;;11.80;99.90;;;;;;5109760;28;20042;-83
2023/07/26 03:34:19;;;;;;;6.57;3.08;;;11.80;99.90;;;;;;5112811;28;20092;-84
2023/07/26 03:36:45;;;;;;;8.93;3.08;;;11.80;99.90;;;;;;5112795;28;20044;-83
2023/07/26 03:39:12;;;;;;;8.70;3.00;;;11.80;99.90;;;;;;5113177;28;20043;-83
2023/07/26 03:41:39;;;;;;;5.22;2.83;;;11.90;99.90;;;;;;5112704;28;20099;-83
2023/07/26 03:44:06;;;;;;;6.53;3.22;;;11.90;99.90;;;;;;5112773;28;20058;-83
2023/07/26 03:46:33;;;;;;;5.70;3.05;;;12.00;99.90;;;;;;5112425;28;20042;-83
2023/07/26 03:48:59;;;;;;;6.95;3.53;;;12.00;99.90;;;;;;5112283;28;20032;-83
2023/07/26 03:51:26;;;;;;;9.30;3.20;;;12.00;99.90;;;;;;5111872;28;20111;-83
2023/07/26 03:53:53;;;;;;;8.52;3.53;;;12.00;99.90;;;;;;5113722;28;20590;-84
2023/07/26 03:56:19;;;;;;;9.57;3.67;;;12.00;99.90;;;;;;5113336;28;20047;-83
2023/07/26 03:58:46;;;;;;;5.47;3.30;;;12.00;99.90;;;;;;5113261;28;20083;-84
2023/07/26 04:01:13;;;;;;;6.72;2.97;;;12.00;99.90;;;;;;5113272;28;20504;-83
2023/07/26 04:03:40;;;;;;;5.70;2.72;;;12.00;99.90;;;;;;5112792;28;20776;-83
2023/07/26 04:06:12;;;;;;;6.78;3.35;;;12.00;99.90;;;;;;5114543;27;20095;-83
2023/07/26 04:08:40;;;;;;;8.77;3.38;;;12.00;99.90;;;;;;5129902;28;20040;-83
2023/07/26 04:11:07;;;;;;;5.57;3.28;;;12.00;99.90;;;;;;5129956;28;20039;-83
2023/07/26 04:13:34;;;;;;;9.93;3.67;;;12.00;99.90;;;;;;5096133;28;20403;-83
2023/07/26 04:16:01;;;;;;;5.13;3.13;;;12.00;99.90;;;;;;5129870;28;20074;-83
2023/07/26 04:18:27;;;;;;;7.28;3.35;;;12.00;99.90;;;;;;5096229;28;20086;-82
2023/07/26 04:20:54;;;;;;;9.23;3.67;;;12.00;99.90;;;;;;5096233;28;20773;-83
2023/07/26 04:23:21;;;;;;;5.95;3.05;;;12.10;99.90;;;;;;5112753;28;20127;-83
2023/07/26 04:25:50;;;;;;;8.82;3.40;;;12.10;99.90;;;;;;5095788;28;20526;-83
2023/07/26 04:28:17;;;;;;;7.20;3.25;;;12.10;99.90;;;;;;5114002;28;20040;-83
2023/07/26 04:30:44;;;;;;;7.38;3.20;;;12.10;99.90;;;;;;5112866;28;20367;-83
2023/07/26 04:33:11;;;;;;;6.35;3.30;;;12.10;99.90;;;;;;5129592;28;20039;-83
2023/07/26 04:35:38;;;;;;;5.53;2.80;;;12.10;99.90;;;;;;5129019;28;20471;-83
2023/07/26 04:38:04;;;;;;;7.88;3.10;;;12.20;99.90;;;;;;5130053;28;20031;-83
2023/07/26 04:40:31;;;;;;;5.80;3.65;;;12.20;99.90;;;;;;5124175;28;20032;-83
2023/07/26 04:42:58;;;;;;;6.63;3.45;;;12.20;99.90;;;;;;5095452;28;20265;-83
2023/07/26 04:45:24;;;;;;;6.03;3.13;;;12.20;99.90;;;;;;5112650;28;20071;-83
2023/07/26 04:47:51;;;;;;;8.05;3.58;;;12.20;99.90;;;;;;5095109;28;20035;-83
2023/07/26 04:50:18;;;;;;;7.78;3.65;;;12.20;99.90;;;;;;5095505;28;20099;-83
2023/07/26 04:52:44;;;;;;;6.95;3.35;;;12.20;99.90;;;;;;5119414;27;20031;-83
2023/07/26 04:55:11;;;;;;;7.38;3.92;;;12.30;99.90;;;;;;5132553;27;20074;-84
2023/07/26 04:57:39;;;;;;;6.55;3.42;;;12.30;99.90;;;;;;5149185;27;20039;-83
2023/07/26 05:00:07;;;;;;;7.13;3.80;;;12.30;99.90;;;;;;5149390;27;20118;-83
2023/07/26 05:02:35;;;;;;;23.38;4.18;;;12.40;99.90;;;;;;5128030;28;20085;-82
2023/07/26 05:05:02;;;;;;;7.75;3.60;;;12.40;99.90;;;;;;5111836;28;20101;-83
2023/07/26 05:07:29;;;;;;;5.03;3.15;;;12.40;99.90;;;;;;5111899;28;20495;-83
2023/07/26 05:09:55;;;;;;;5.00;3.05;;;12.40;99.90;;;;;;5111751;28;20035;-83
2023/07/26 05:12:22;;;;;;;7.97;3.33;;;12.40;99.90;;;;;;5111790;27;20552;-83
2023/07/26 05:14:48;;;;;;;6.90;3.42;;;12.40;99.90;;;;;;5128030;28;20495;-83
2023/07/26 05:17:15;;;;;;;7.05;3.40;;;12.40;99.90;;;;;;5095117;28;20075;-83
2023/07/26 05:19:42;;;;;;;10.55;3.20;;;12.40;99.90;;;;;;5097461;27;20092;-83
2023/07/26 05:22:09;;;;;;;4.60;2.95;;;12.40;99.90;;;;;;5115401;27;20118;-83
2023/07/26 05:24:35;;;;;;;10.20;3.20;;;12.50;99.90;;;;;;5114770;27;20039;-83
2023/07/26 05:27:03;;;;;;;9.73;3.50;;;12.60;99.90;;;;;;5115183;28;20035;-83
2023/07/26 05:29:30;;;;;;;7.07;3.33;;;12.60;99.90;;;;;;5115196;27;20521;-83
2023/07/26 05:31:56;;;;;;;10.93;3.28;;;12.60;99.90;;;;;;5111296;28;20130;-83
2023/07/26 05:34:23;;;;;;;7.53;3.47;;;12.70;99.90;;;;;;5111675;28;20075;-83
2023/07/26 05:36:51;;;;;;;6.05;3.03;;;12.70;99.90;;;;;;5111117;28;20108;-83
2023/07/26 05:39:18;;;;;;;9.23;3.60;;;12.70;99.90;;;;;;5101834;28;20048;-83
2023/07/26 05:41:45;;;;;;;7.13;3.20;;;12.70;99.90;;;;;;5110967;28;20561;-83
2023/07/26 05:44:11;;;;;;;5.22;3.08;;;12.80;99.90;;;;;;5094550;28;20120;-83
2023/07/26 05:46:38;;;;;;;6.75;3.03;;;12.90;99.90;;;;;;5111055;28;20433;-83
2023/07/26 05:49:05;;;;;;;6.78;3.00;;;13.00;99.90;;;;;;5094106;28;20035;-83
2023/07/26 05:51:32;;;;;;;5.75;3.08;;;13.10;99.90;;;;;;5120365;28;20146;-83
2023/07/26 05:53:59;;;;;;;8.73;2.92;;;13.10;99.90;;;;;;5127433;28;20130;-83
2023/07/26 05:56:26;;;;;;;7.13;3.22;;;13.20;99.90;;;;;;5127410;28;20377;-83
2023/07/26 05:58:52;;;;;;;8.48;3.03;;;13.30;99.90;;;;;;5110486;28;20047;-83
2023/07/26 06:01:19;;;;;;;5.88;3.25;;;13.40;99.90;;;;;;5106514;28;20122;-83
2023/07/26 06:03:46;;;;;;;6.47;3.20;;;13.40;99.90;;;;;;5126886;28;20093;-83
2023/07/26 06:06:12;;;;;;;7.50;3.38;;;13.50;99.90;;;;;;5127864;28;20049;-83
2023/07/26 06:08:39;;;;;;;5.93;3.10;;;13.60;99.90;;;;;;5143977;28;20043;-83
2023/07/26 06:11:06;;;;;;;5.78;2.60;;;13.60;99.90;;;;;;5129654;27;20030;-83
2023/07/26 06:13:32;;;;;;;5.65;2.33;;;13.60;99.90;;;;;;5114360;27;20070;-83
2023/07/26 06:15:59;;;;;;;6.32;2.75;;;13.60;99.90;;;;;;5123334;28;20036;-84
2023/07/26 06:18:26;;;;;;;4.93;2.15;;;13.70;99.90;;;;;;5110847;28;20047;-83
2023/07/26 06:20:53;;;;;;;6.65;2.40;;;13.70;99.90;;;;;;5093446;28;20058;-84
2023/07/26 06:23:20;;;;;;;4.43;2.47;;;13.70;99.90;;;;;;5110938;28;20039;-83
2023/07/26 06:25:46;;;;;;;5.43;2.45;;;13.70;99.90;;;;;;5093648;28;20028;-84
2023/07/26 06:28:13;;;;;;;5.82;2.35;;;13.60;99.90;;;;;;5113315;27;20191;-83
2023/07/26 06:30:40;;;;;;;6.32;2.05;;;13.60;99.90;;;;;;5111674;28;20039;-83
2023/07/26 06:33:10;;;;;;;6.10;2.17;;;13.60;99.90;;;;;;5126144;27;20040;-82
2023/07/26 06:35:36;;;;;;;5.18;2.60;;;13.50;99.90;;;;;;5107932;28;20047;-83
2023/07/26 06:38:03;;;;;;;5.32;2.20;;;13.50;99.90;;;;;;5126866;28;20043;-82
2023/07/26 06:40:30;;;;;;;5.45;2.42;;;13.50;99.90;;;;;;5127225;28;20043;-83
2023/07/26 06:42:57;;;;;;;5.30;2.00;;;13.50;99.90;;;;;;5126657;28;20047;-83
2023/07/26 06:45:23;;;;;;;3.92;1.83;;;13.50;99.90;;;;;;5116229;28;20036;-82
2023/07/26 06:47:50;;;;;;;4.80;1.83;;;13.40;99.90;;;;;;5143672;28;20039;-82
2023/07/26 06:50:17;;;;;;;9.68;2.70;;;13.40;99.90;;;;;;5110372;28;20121;-83
2023/07/26 06:52:43;;;;;;;6.30;2.20;;;13.30;99.90;;;;;;5110073;28;20040;-83
2023/07/26 06:55:10;;;;;;;8.27;2.28;;;13.30;99.90;;;;;;5110144;28;20043;-82
2023/07/26 06:57:37;;;;;;;6.50;2.05;;;13.30;99.90;;;;;;5108391;28;20114;-83
2023/07/26 07:00:06;;;;;;;4.30;2.03;;;13.20;99.90;;;;;;5110059;28;20179;-83
2023/07/26 07:02:33;;;;;;;5.45;2.83;;;13.30;99.90;;;;;;5111060;28;20043;-79
2023/07/26 07:05:00;;;;;;;8.40;2.30;;;13.30;99.90;;;;;;5143266;28;20156;-82
2023/07/26 07:07:26;;;;;;;5.40;2.10;;;13.40;99.90;;;;;;5113823;28;20093;-81
2023/07/26 07:09:53;;;;;;;4.68;2.33;;;13.50;99.90;;;;;;5097329;28;20074;-81
2023/07/26 07:12:20;;;;;;;6.55;2.30;;;13.60;99.90;;;;;;5130817;28;20039;-81
2023/07/26 07:14:47;;;;;;;6.38;2.20;;;13.70;99.90;;;;;;5097115;28;20040;-82
2023/07/26 07:17:13;;;;;;;7.63;2.05;;;13.90;99.90;;;;;;5097223;28;20050;-82
2023/07/26 07:19:40;;;;;;;6.85;2.55;;;14.10;99.90;;;;;;5133048;27;20043;-82
2023/07/26 07:22:07;;;;;;;5.15;2.10;;;14.30;99.90;;;;;;5117362;27;20046;-82
2023/07/26 07:24:34;;;;;;;5.00;1.80;;;14.40;99.90;;;;;;5134386;27;20035;-82
2023/07/26 07:27:01;;;;;;;4.95;2.00;;;14.30;99.90;;;;;;5117228;27;20039;-82
2023/07/26 07:29:28;;;;;;;2.85;1.40;;;14.40;99.90;;;;;;5113306;28;20042;-82
2023/07/26 07:31:54;;;;;;;4.95;1.55;;;14.50;99.90;;;;;;5096517;28;20031;-82
2023/07/26 07:34:21;;;;;;;6.18;2.40;;;14.40;99.90;;;;;;5097289;28;20491;-81
2023/07/26 07:36:48;;;;;;;6.85;2.20;;;14.40;99.90;;;;;;5097357;28;20069;-83
2023/07/26 07:39:15;;;;;;;7.78;2.13;;;14.40;99.90;;;;;;5103321;28;20773;-84
2023/07/26 07:41:42;;;;;;;3.38;1.73;;;14.60;99.90;;;;;;5113679;28;20047;-82
2023/07/26 07:44:09;;;;;;;6.07;1.85;;;14.80;99.90;;;;;;5112946;28;20043;-82
2023/07/26 07:46:35;;;;;;;3.55;1.55;;;15.00;99.90;;;;;;5096626;28;20046;-84
2023/07/26 07:49:02;;;;;;;4.32;1.70;;;15.10;99.90;;;;;;5112804;28;20043;-83
2023/07/26 07:51:29;;;;;;;3.58;1.38;;;15.30;99.90;;;;;;5097347;28;20081;-84
2023/07/26 07:53:56;;;;;;;3.53;1.42;;;15.40;99.90;;;;;;5096212;28;20389;-82
2023/07/26 07:56:22;;;;;;;3.45;1.60;;;15.50;99.90;;;;;;5097023;28;20053;-84
2023/07/26 07:58:49;;;;;;;3.42;1.40;;;15.60;99.90;;;;;;5146897;28;20043;-83
2023/07/26 08:01:16;;;;;;;3.80;1.30;;;15.80;99.90;;;;;;5130176;28;20043;-83
2023/07/26 08:03:43;;;;;;;3.45;1.60;;;15.80;99.90;;;;;;5117695;27;20059;-84
2023/07/26 08:06:11;;;;;;;4.13;1.60;;;15.90;99.90;;;;;;5133124;27;20054;-84
2023/07/26 08:08:39;;;;;;;3.42;1.63;;;15.80;99.90;;;;;;5133638;27;20503;-83
2023/07/26 08:11:09;;;;;;;2.80;1.50;;;15.90;99.90;;;;;;5133398;27;20042;-83
2023/07/26 08:13:35;;;;;;;3.25;1.50;;;15.90;99.90;;;;;;5149567;27;20039;-84
2023/07/26 08:16:02;;;;;;;3.80;1.60;;;16.00;99.90;;;;;;5113030;28;20054;-84
2023/07/26 08:18:29;;;;;;;2.40;1.40;;;16.00;99.90;;;;;;5112222;28;20097;-83
2023/07/26 08:20:56;;;;;;;3.53;1.33;;;16.00;99.90;;;;;;5125557;27;20129;-84
2023/07/26 08:23:22;;;;;;;4.30;1.45;;;15.90;99.90;;;;;;5116281;27;20554;-84
2023/07/26 08:25:49;;;;;;;2.85;1.33;;;15.80;99.90;;;;;;5100205;28;20450;-83
2023/07/26 08:28:16;;;;;;;3.05;1.30;;;16.00;99.90;;;;;;5129323;28;20586;-84
2023/07/26 08:30:42;;;;;;;3.30;1.40;;;16.10;99.90;;;;;;5113237;28;20035;-84
2023/07/26 08:33:09;;;;;;;3.63;1.30;;;16.10;99.90;;;;;;5112034;28;20093;-83
2023/07/26 08:35:36;;;;;;;2.75;1.17;;;16.20;99.90;;;;;;5112742;28;20035;-83
2023/07/26 08:38:03;;;;;;;2.58;1.20;;;16.10;99.90;;;;;;5112306;28;20043;-84
2023/07/26 08:40:30;;;;;;;3.50;1.38;;;16.20;99.90;;;;;;5112775;28;20043;-84
2023/07/26 08:43:02;;;;;;;3.83;1.50;;;16.40;99.90;;;;;;5112384;28;20039;-84
2023/07/26 08:45:29;;;;;;;4.15;1.60;;;16.40;99.90;;;;;;5136309;27;20031;-84
2023/07/26 08:47:56;;;;;;;3.30;1.65;;;16.30;99.90;;;;;;5104828;28;20562;-84
2023/07/26 08:50:23;;;;;;;3.53;1.67;;;16.20;99.90;;;;;;5128832;28;20055;-84
2023/07/26 08:52:50;;;;;;;3.13;1.65;;;16.30;99.90;;;;;;5128858;28;20090;-84
2023/07/26 08:55:25;;;;;;;3.72;1.55;;;16.40;99.90;;;;;;5134220;27;20515;-84
2023/07/26 08:58:01;;;;;;;3.53;1.58;;;16.50;99.90;;;;;;5117985;28;20036;-84
2023/07/26 09:00:29;;;;;;;3.28;1.30;;;16.60;99.90;;;;;;5129496;28;20075;-84
2023/07/26 09:02:59;;;;;;;2.60;1.08;;;16.70;99.90;;;;;;5129641;28;20047;-82
2023/07/26 09:05:25;;;;;;;3.38;1.17;;;16.80;99.90;;;;;;5128120;28;20050;-82
2023/07/26 09:07:52;;;;;;;3.38;1.30;;;16.90;99.90;;;;;;5129065;28;20031;-82
2023/07/26 09:10:27;;;;;;;2.53;1.30;;;16.80;99.90;;;;;;5129378;28;20040;-85
2023/07/26 09:13:21;;;;;;;3.33;1.33;;;17.00;99.90;;;;;;5111867;28;20138;-82
2023/07/26 09:15:48;;;;;;;1.80;0.90;;;17.00;99.90;;;;;;5110380;28;20052;-85
2023/07/26 09:18:15;;;;;;;2.33;1.10;;;17.20;99.90;;;;;;5111733;28;20039;-84
2023/07/26 09:20:42;;;;;;;1.67;0.75;;;17.40;99.90;;;;;;5097332;28;20051;-85
2023/07/26 09:23:10;;;;;;;1.58;0.80;;;17.50;99.90;;;;;;5111571;28;20661;-85
2023/07/26 09:25:39;;;;;;;2.05;0.88;;;17.50;99.90;;;;;;5112301;28;20075;-85
2023/07/26 09:28:08;;;;;;;1.48;0.75;;;17.60;99.90;;;;;;5130758;27;20484;-85
2023/07/26 09:30:36;;;;;;;1.60;0.80;;;17.30;99.90;;;;;;5121347;27;20034;-85
2023/07/26 09:33:04;;;;;;;3.00;0.90;;;17.30;99.90;;;;;;5139387;27;20067;-85
2023/07/26 09:35:32;;;;;;;1.73;0.80;;;17.30;99.90;;;;;;5124500;28;20614;-84
2023/07/26 09:38:14;;;;;;;2.03;1.10;;;17.50;99.90;;;;;;5145562;27;20092;-83
2023/07/26 09:40:40;;;;;;;2.22;1.20;;;17.70;99.90;;;;;;5145910;27;20407;-87
2023/07/26 09:43:08;;;;;;;3.73;1.37;;;17.60;99.90;;;;;;5128667;28;20122;-86
2023/07/26 09:45:36;;;;;;;2.65;1.40;;;17.70;99.90;;;;;;5112532;28;20183;-85
2023/07/26 09:48:14;;;;;;;2.63;1.30;;;17.70;99.90;;;;;;5140837;27;20070;-87
2023/07/26 09:50:43;;;;;;;3.00;1.40;;;17.70;99.90;;;;;;5149887;27;20055;-83
2023/07/26 09:53:11;;;;;;;3.08;1.40;;;17.80;99.90;;;;;;5117535;28;20126;-89
2023/07/26 09:55:38;;;;;;;2.78;1.40;;;17.90;99.90;;;;;;5122508;27;20452;-82
2023/07/26 09:58:07;;;;;;;2.60;1.50;;;18.00;99.90;;;;;;5149029;27;20932;-87
2023/07/26 10:00:35;;;;;;;5.95;1.52;;;18.00;99.90;;;;;;5132038;27;20487;-84
2023/07/26 10:03:04;;;;;;;2.53;1.10;;;18.10;99.90;;;;;;5149843;27;20039;-85
2023/07/26 10:05:38;;;;;;;4.85;1.70;;;18.30;99.90;;;;;;5117785;28;20789;-84
2023/07/26 10:08:05;;;;;;;3.78;1.40;;;18.50;99.90;;;;;;5129738;28;20697;-84
2023/07/26 10:10:32;;;;;;;2.47;1.30;;;18.40;99.90;;;;;;5127340;28;20075;-84
2023/07/26 10:13:00;;;;;;;3.05;1.35;;;18.50;99.90;;;;;;5096062;28;20522;-89
2023/07/26 10:15:30;;;;;;;2.78;1.48;;;18.70;99.90;;;;;;5113146;28;20511;-88
2023/07/26 10:17:57;;;;;;;2.88;1.30;;;18.80;99.90;;;;;;5144294;27;20047;-86
2023/07/26 10:20:24;;;;;;;2.60;1.30;;;18.80;99.90;;;;;;5131724;27;20823;-86
2023/07/26 10:22:51;;;;;;;2.80;1.30;;;18.90;99.90;;;;;;5141832;27;20069;-86
2023/07/26 10:25:18;;;;;;;3.15;1.42;;;18.80;99.90;;;;;;5106522;28;20047;-87
2023/07/26 10:27:49;;;;;;;3.25;1.60;;;18.90;99.90;;;;;;5136214;27;20675;-84
2023/07/26 10:30:16;;;;;;;3.75;1.38;;;19.00;99.90;;;;;;5138194;27;20031;-85
2023/07/26 10:32:48;;;;;;;3.65;1.42;;;18.90;99.90;;;;;;5103155;28;20054;-85
2023/07/26 10:35:34;;;;;;;4.75;1.52;;;19.10;99.90;;;;;;5138444;28;20491;-85
2023/07/26 10:38:03;;;;;;;2.60;1.30;;;19.30;99.90;;;;;;5124876;28;20101;-86
2023/07/26 10:40:38;;;;;;;3.25;1.50;;;19.20;99.90;;;;;;5145568;27;20035;-87
2023/07/26 10:43:20;;;;;;;3.35;1.40;;;19.30;99.90;;;;;;5132136;28;20130;-86
2023/07/26 10:45:54;;;;;;;4.25;1.45;;;19.50;99.90;;;;;;5147656;28;20514;-84
2023/07/26 10:48:26;;;;;;;3.47;1.50;;;19.30;99.90;;;;;;5148077;28;20067;-87
2023/07/26 10:51:20;;;;;;;2.78;1.10;;;18.50;99.90;;;;;;5148230;28;20057;-85
2023/07/26 10:53:46;;;;;;;2.88;1.15;;;18.00;99.90;;;;;;5165073;27;20487;-85
2023/07/26 10:56:24;;;;;;;2.58;1.25;;;17.60;99.90;;;;;;5131041;28;20050;-86
2023/07/26 10:58:56;;;;;;;3.20;1.40;;;17.50;99.90;;;;;;5139842;28;20046;-85
2023/07/26 11:01:30;;;;;;;4.05;1.33;;;17.60;99.90;;;;;;5152834;28;20118;-85
2023/07/26 11:03:57;;;;;;;3.33;1.42;;;17.60;99.90;;;;;;5118491;28;20415;-85
2023/07/26 11:06:58;;;;;;;3.20;1.40;;;17.90;99.90;;;;;;5126693;28;20046;-85
2023/07/26 11:09:30;;;;;;;2.75;1.35;;;18.20;99.90;;;;;;5129715;28;20044;-85
2023/07/26 11:12:02;;;;;;;2.83;1.40;;;18.40;99.90;;;;;;5141823;28;20047;-85
2023/07/26 11:14:31;;;;;;;2.92;1.40;;;18.70;99.90;;;;;;5147185;28;20396;-84
2023/07/26 11:17:07;;;;;;;2.90;1.40;;;18.80;99.90;;;;;;5124595;28;20078;-84
2023/07/26 11:19:50;;;;;;;3.25;1.40;;;19.00;99.90;;;;;;5137662;28;20054;-85
2023/07/26 11:22:20;;;;;;;3.97;1.50;;;19.20;99.90;;;;;;5135729;28;20499;-85
2023/07/26 11:24:47;;;;;;;4.07;1.60;;;19.60;99.90;;;;;;5135528;28;20130;-85
2023/07/26 11:27:14;;;;;;;3.17;1.40;;;19.70;99.90;;;;;;5109191;28;20494;-84
2023/07/26 11:29:41;;;;;;;2.60;1.50;;;19.20;99.90;;;;;;5122406;27;20114;-85
2023/07/26 11:32:09;;;;;;;3.15;1.70;;;19.20;99.90;;;;;;5124097;28;20054;-85
2023/07/26 11:34:36;;;;;;;3.03;1.50;;;19.00;99.90;;;;;;5106946;28;20031;-86
2023/07/26 11:37:14;;;;;;;3.05;1.30;;;19.00;99.90;;;;;;5145236;28;20039;-86
2023/07/26 11:39:41;;;;;;;2.65;1.40;;;19.40;99.90;;;;;;5148687;28;20043;-88
2023/07/26 11:42:08;;;;;;;2.70;1.20;;;19.50;99.90;;;;;;5115283;28;20046;-87
2023/07/26 11:44:35;;;;;;;3.75;1.52;;;19.30;99.90;;;;;;5148571;28;20589;-86
2023/07/26 11:47:02;;;;;;;2.70;1.10;;;19.10;99.90;;;;;;5115409;28;20042;-87
2023/07/26 11:49:32;;;;;;;1.95;1.05;;;18.80;99.90;;;;;;5132268;28;20035;-87
2023/07/26 11:51:58;;;;;;;3.00;1.10;;;18.30;99.90;;;;;;5116256;27;20061;-87
2023/07/26 11:54:25;;;;;;;3.60;1.25;;;18.20;99.90;;;;;;5129380;28;20044;-87
2023/07/26 11:56:52;;;;;;;3.38;1.10;;;17.70;99.90;;;;;;5098029;28;20043;-85
2023/07/26 11:59:19;;;;;;;2.63;0.95;;;17.20;99.90;;;;;;5114722;28;20054;-85
2023/07/26 12:01:47;;;;;;;2.92;1.00;;;16.70;99.90;;;;;;5098144;28;20039;-85
2023/07/26 12:04:16;;;;;;;2.90;1.10;;;16.30;99.90;;;;;;5132014;27;20407;-86
2023/07/26 12:06:44;;;;;;;3.33;1.00;;;16.20;99.90;;;;;;5119169;27;20054;-86
2023/07/26 12:09:12;;;;;;;2.22;0.90;;;16.10;99.90;;;;;;5152492;27;20449;-85
2023/07/26 12:11:59;;;;;;;2.45;0.98;;;16.00;99.90;;;;;;5152264;27;20043;-86
2023/07/26 12:14:31;;;;;;;3.63;1.27;;;15.90;99.90;;;;;;5152360;27;20055;-86
2023/07/26 12:16:58;;;;;;;4.18;1.30;;;15.80;99.90;;;;;;5148643;28;20093;-85
2023/07/26 12:19:25;;;;;;;2.50;1.15;;;15.70;99.90;;;;;;5098149;28;20047;-86
2023/07/26 12:21:52;;;;;;;1.70;0.95;;;15.70;99.90;;;;;;5132261;28;20051;-86
2023/07/26 12:24:19;;;;;;;2.13;0.90;;;15.80;99.90;;;;;;5132178;28;20069;-86
2023/07/26 12:26:47;;;;;;;1.98;0.90;;;15.80;99.90;;;;;;5132407;28;20040;-85
2023/07/26 12:29:15;;;;;;;2.40;1.10;;;15.90;99.90;;;;;;5135757;27;20043;-86
2023/07/26 12:31:42;;;;;;;3.67;1.10;;;16.10;99.90;;;;;;5118448;27;20039;-86
2023/07/26 12:34:10;;;;;;;2.28;0.98;;;16.20;99.90;;;;;;5118586;27;20036;-86
2023/07/26 12:36:37;;;;;;;1.63;0.85;;;16.20;99.90;;;;;;5135108;27;20039;-86
2023/07/26 12:39:08;;;;;;;2.70;0.90;;;16.10;99.90;;;;;;5135340;28;20043;-86
2023/07/26 12:41:36;;;;;;;1.98;1.00;;;16.00;99.90;;;;;;5131594;28;20123;-86
2023/07/26 12:44:06;;;;;;;3.25;0.90;;;15.90;99.90;;;;;;5115338;28;20047;-86
2023/07/26 12:46:34;;;;;;;2.13;0.90;;;15.80;99.90;;;;;;5131896;28;20039;-86
2023/07/26 12:49:01;;;;;;;1.70;0.93;;;15.90;99.90;;;;;;5144887;27;20043;-87
2023/07/26 12:51:28;;;;;;;2.30;0.95;;;15.70;99.90;;;;;;5152160;27;20209;-86